sensor_id;sensor_type;location;lat;lon;timestamp;P1;durP1;ratioP1;P2;durP2;ratioP2
1691;SDS011;843;52.054;8.552;2023-01-30T00:01:12;59.97;;;27.40;;
1691;SDS011;843;52.054;8.552;2023-01-30T00:03:42;44.00;;;22.67;;
1691;SDS011;843;52.054;8.552;2023-01-30T00:06:08;48.27;;;26.60;;
1691;SDS011;843;52.054;8.552;2023-01-30T00:08:35;54.90;;;28.57;;
1691;SDS011;843;52.054;8.552;2023-01-30T00:11:04;49.30;;;25.43;;
1691;SDS011;843;52.054;8.552;2023-01-30T00:13:35;53.07;;;26.20;;
1691;SDS011;843;52.054;8.552;2023-01-30T00:16:02;57.47;;;30.10;;
1691;SDS011;843;52.054;8.552;2023-01-30T00:18:33;51.07;;;27.57;;
1691;SDS011;843;52.054;8.552;2023-01-30T00:21:03;56.80;;;29.97;;
1691;SDS011;843;52.054;8.552;2023-01-30T00:23:31;48.10;;;28.23;;
1691;SDS011;843;52.054;8.552;2023-01-30T00:25:59;57.67;;;28.83;;
1691;SDS011;843;52.054;8.552;2023-01-30T00:28:27;51.63;;;27.53;;
1691;SDS011;843;52.054;8.552;2023-01-30T00:30:54;55.47;;;28.10;;
1691;SDS011;843;52.054;8.552;2023-01-30T00:33:22;57.17;;;29.80;;
1691;SDS011;843;52.054;8.552;2023-01-30T00:35:50;47.23;;;27.93;;
1691;SDS011;843;52.054;8.552;2023-01-30T00:38:20;53.77;;;27.23;;
1691;SDS011;843;52.054;8.552;2023-01-30T00:40:47;48.03;;;27.93;;
1691;SDS011;843;52.054;8.552;2023-01-30T00:43:15;47.07;;;27.67;;
1691;SDS011;843;52.054;8.552;2023-01-30T00:46:01;50.63;;;29.57;;
1691;SDS011;843;52.054;8.552;2023-01-30T00:48:47;53.97;;;28.90;;
1691;SDS011;843;52.054;8.552;2023-01-30T00:51:14;51.70;;;27.57;;
1691;SDS011;843;52.054;8.552;2023-01-30T00:53:42;52.73;;;29.30;;
1691;SDS011;843;52.054;8.552;2023-01-30T00:56:08;47.63;;;25.97;;
1691;SDS011;843;52.054;8.552;2023-01-30T00:58:35;54.37;;;29.77;;
1691;SDS011;843;52.054;8.552;2023-01-30T01:01:02;56.43;;;29.50;;
1691;SDS011;843;52.054;8.552;2023-01-30T01:03:29;55.13;;;29.40;;
1691;SDS011;843;52.054;8.552;2023-01-30T01:05:55;57.07;;;29.57;;
1691;SDS011;843;52.054;8.552;2023-01-30T01:08:22;50.23;;;27.93;;
1691;SDS011;843;52.054;8.552;2023-01-30T01:10:53;53.03;;;28.87;;
1691;SDS011;843;52.054;8.552;2023-01-30T01:13:20;52.37;;;28.10;;
1691;SDS011;843;52.054;8.552;2023-01-30T01:15:47;53.07;;;28.80;;
1691;SDS011;843;52.054;8.552;2023-01-30T01:18:15;55.50;;;30.53;;
1691;SDS011;843;52.054;8.552;2023-01-30T01:20:41;57.00;;;30.83;;
1691;SDS011;843;52.054;8.552;2023-01-30T01:23:08;52.13;;;29.07;;
1691;SDS011;843;52.054;8.552;2023-01-30T01:25:35;52.70;;;31.03;;
1691;SDS011;843;52.054;8.552;2023-01-30T01:28:09;60.37;;;28.40;;
1691;SDS011;843;52.054;8.552;2023-01-30T01:30:36;62.30;;;28.87;;
1691;SDS011;843;52.054;8.552;2023-01-30T01:33:03;56.53;;;29.33;;
1691;SDS011;843;52.054;8.552;2023-01-30T01:35:29;62.23;;;28.67;;
1691;SDS011;843;52.054;8.552;2023-01-30T01:37:56;51.17;;;27.83;;
1691;SDS011;843;52.054;8.552;2023-01-30T01:40:23;47.37;;;27.00;;
1691;SDS011;843;52.054;8.552;2023-01-30T01:43:15;56.60;;;28.57;;
1691;SDS011;843;52.054;8.552;2023-01-30T01:45:42;50.90;;;28.63;;
1691;SDS011;843;52.054;8.552;2023-01-30T01:48:11;55.47;;;28.77;;
1691;SDS011;843;52.054;8.552;2023-01-30T01:50:41;52.70;;;28.07;;
1691;SDS011;843;52.054;8.552;2023-01-30T01:53:11;48.40;;;25.57;;
1691;SDS011;843;52.054;8.552;2023-01-30T01:55:43;60.70;;;29.20;;
1691;SDS011;843;52.054;8.552;2023-01-30T01:58:12;55.30;;;28.50;;
1691;SDS011;843;52.054;8.552;2023-01-30T02:00:42;59.47;;;30.10;;
1691;SDS011;843;52.054;8.552;2023-01-30T02:03:11;60.60;;;31.13;;
1691;SDS011;843;52.054;8.552;2023-01-30T02:05:41;51.03;;;29.23;;
1691;SDS011;843;52.054;8.552;2023-01-30T02:08:10;55.90;;;30.93;;
1691;SDS011;843;52.054;8.552;2023-01-30T02:10:42;63.90;;;32.90;;
1691;SDS011;843;52.054;8.552;2023-01-30T02:13:13;65.50;;;33.03;;
1691;SDS011;843;52.054;8.552;2023-01-30T02:15:41;58.23;;;31.83;;
1691;SDS011;843;52.054;8.552;2023-01-30T02:18:08;62.07;;;32.37;;
1691;SDS011;843;52.054;8.552;2023-01-30T02:20:40;64.77;;;33.90;;
1691;SDS011;843;52.054;8.552;2023-01-30T02:26:17;65.70;;;33.17;;
1691;SDS011;843;52.054;8.552;2023-01-30T02:31:56;62.23;;;29.20;;
1691;SDS011;843;52.054;8.552;2023-01-30T02:34:32;55.53;;;30.83;;
1691;SDS011;843;52.054;8.552;2023-01-30T02:37:07;69.17;;;31.50;;
1691;SDS011;843;52.054;8.552;2023-01-30T02:39:41;73.13;;;33.10;;
1691;SDS011;843;52.054;8.552;2023-01-30T02:42:17;66.30;;;31.40;;
1691;SDS011;843;52.054;8.552;2023-01-30T02:44:49;63.67;;;32.20;;
1691;SDS011;843;52.054;8.552;2023-01-30T02:47:22;60.87;;;30.77;;
1691;SDS011;843;52.054;8.552;2023-01-30T02:49:51;55.70;;;31.50;;
1691;SDS011;843;52.054;8.552;2023-01-30T02:52:20;69.70;;;34.70;;
1691;SDS011;843;52.054;8.552;2023-01-30T02:54:47;61.37;;;33.30;;
1691;SDS011;843;52.054;8.552;2023-01-30T02:57:15;63.40;;;33.43;;
1691;SDS011;843;52.054;8.552;2023-01-30T02:59:44;59.37;;;32.30;;
1691;SDS011;843;52.054;8.552;2023-01-30T03:05:19;67.60;;;31.30;;
1691;SDS011;843;52.054;8.552;2023-01-30T03:07:54;63.57;;;32.40;;
1691;SDS011;843;52.054;8.552;2023-01-30T03:10:28;57.70;;;32.57;;
1691;SDS011;843;52.054;8.552;2023-01-30T03:13:03;69.63;;;34.03;;
1691;SDS011;843;52.054;8.552;2023-01-30T03:15:37;61.53;;;31.57;;
1691;SDS011;843;52.054;8.552;2023-01-30T03:18:08;63.03;;;32.13;;
1691;SDS011;843;52.054;8.552;2023-01-30T03:20:35;58.57;;;32.47;;
1691;SDS011;843;52.054;8.552;2023-01-30T03:23:02;56.00;;;30.40;;
1691;SDS011;843;52.054;8.552;2023-01-30T03:25:29;56.57;;;29.73;;
1691;SDS011;843;52.054;8.552;2023-01-30T03:27:57;58.00;;;30.90;;
1691;SDS011;843;52.054;8.552;2023-01-30T03:30:24;53.20;;;27.93;;
1691;SDS011;843;52.054;8.552;2023-01-30T03:32:51;52.87;;;30.27;;
1691;SDS011;843;52.054;8.552;2023-01-30T03:35:19;53.43;;;29.30;;
1691;SDS011;843;52.054;8.552;2023-01-30T03:37:46;51.53;;;28.47;;
1691;SDS011;843;52.054;8.552;2023-01-30T03:40:13;55.50;;;28.20;;
1691;SDS011;843;52.054;8.552;2023-01-30T03:42:40;58.70;;;30.13;;
1691;SDS011;843;52.054;8.552;2023-01-30T03:45:08;50.73;;;26.50;;
1691;SDS011;843;52.054;8.552;2023-01-30T03:47:35;44.43;;;25.20;;
1691;SDS011;843;52.054;8.552;2023-01-30T03:50:02;42.83;;;25.03;;
1691;SDS011;843;52.054;8.552;2023-01-30T03:52:30;48.97;;;24.90;;
1691;SDS011;843;52.054;8.552;2023-01-30T03:54:59;38.30;;;23.30;;
1691;SDS011;843;52.054;8.552;2023-01-30T03:57:26;40.83;;;25.73;;
1691;SDS011;843;52.054;8.552;2023-01-30T03:59:52;46.53;;;24.40;;
1691;SDS011;843;52.054;8.552;2023-01-30T04:02:22;43.30;;;25.97;;
1691;SDS011;843;52.054;8.552;2023-01-30T04:04:50;41.63;;;23.73;;
1691;SDS011;843;52.054;8.552;2023-01-30T04:07:19;43.67;;;24.37;;
1691;SDS011;843;52.054;8.552;2023-01-30T04:09:47;48.90;;;25.27;;
1691;SDS011;843;52.054;8.552;2023-01-30T04:12:14;42.00;;;24.13;;
1691;SDS011;843;52.054;8.552;2023-01-30T04:14:43;46.40;;;26.33;;
1691;SDS011;843;52.054;8.552;2023-01-30T04:17:10;49.30;;;28.27;;
1691;SDS011;843;52.054;8.552;2023-01-30T04:19:37;47.70;;;26.60;;
1691;SDS011;843;52.054;8.552;2023-01-30T04:22:04;46.97;;;28.73;;
1691;SDS011;843;52.054;8.552;2023-01-30T04:24:31;46.90;;;29.40;;
1691;SDS011;843;52.054;8.552;2023-01-30T04:26:59;51.73;;;28.57;;
1691;SDS011;843;52.054;8.552;2023-01-30T04:29:25;49.90;;;28.07;;
1691;SDS011;843;52.054;8.552;2023-01-30T04:31:52;48.27;;;30.90;;
1691;SDS011;843;52.054;8.552;2023-01-30T04:34:18;47.83;;;28.90;;
1691;SDS011;843;52.054;8.552;2023-01-30T04:36:45;52.27;;;29.13;;
1691;SDS011;843;52.054;8.552;2023-01-30T04:39:12;51.77;;;30.10;;
1691;SDS011;843;52.054;8.552;2023-01-30T04:41:38;49.10;;;29.30;;
1691;SDS011;843;52.054;8.552;2023-01-30T04:44:06;52.37;;;29.70;;
1691;SDS011;843;52.054;8.552;2023-01-30T04:46:33;47.43;;;26.90;;
1691;SDS011;843;52.054;8.552;2023-01-30T04:49:00;45.33;;;26.20;;
1691;SDS011;843;52.054;8.552;2023-01-30T04:51:27;40.03;;;26.20;;
1691;SDS011;843;52.054;8.552;2023-01-30T04:53:53;45.07;;;25.37;;
1691;SDS011;843;52.054;8.552;2023-01-30T04:56:20;49.87;;;28.30;;
1691;SDS011;843;52.054;8.552;2023-01-30T04:58:46;49.60;;;27.67;;
1691;SDS011;843;52.054;8.552;2023-01-30T05:01:20;45.23;;;27.17;;
1691;SDS011;843;52.054;8.552;2023-01-30T05:03:48;44.63;;;26.23;;
1691;SDS011;843;52.054;8.552;2023-01-30T05:06:15;42.67;;;27.00;;
1691;SDS011;843;52.054;8.552;2023-01-30T05:08:42;39.33;;;22.40;;
1691;SDS011;843;52.054;8.552;2023-01-30T05:11:08;37.43;;;21.33;;
1691;SDS011;843;52.054;8.552;2023-01-30T05:13:35;45.37;;;24.70;;
1691;SDS011;843;52.054;8.552;2023-01-30T05:16:02;39.70;;;22.77;;
1691;SDS011;843;52.054;8.552;2023-01-30T05:18:30;34.73;;;20.43;;
1691;SDS011;843;52.054;8.552;2023-01-30T05:21:02;38.80;;;22.40;;
1691;SDS011;843;52.054;8.552;2023-01-30T05:23:30;35.17;;;20.80;;
1691;SDS011;843;52.054;8.552;2023-01-30T05:25:56;35.20;;;20.47;;
1691;SDS011;843;52.054;8.552;2023-01-30T05:28:25;33.10;;;19.57;;
1691;SDS011;843;52.054;8.552;2023-01-30T05:30:52;33.40;;;19.40;;
1691;SDS011;843;52.054;8.552;2023-01-30T05:33:18;30.40;;;17.67;;
1691;SDS011;843;52.054;8.552;2023-01-30T05:35:47;29.97;;;18.83;;
1691;SDS011;843;52.054;8.552;2023-01-30T05:38:14;28.83;;;17.57;;
1691;SDS011;843;52.054;8.552;2023-01-30T05:40:40;30.60;;;19.33;;
1691;SDS011;843;52.054;8.552;2023-01-30T05:43:07;29.20;;;17.57;;
1691;SDS011;843;52.054;8.552;2023-01-30T05:45:34;24.77;;;17.43;;
1691;SDS011;843;52.054;8.552;2023-01-30T05:48:01;26.90;;;16.03;;
1691;SDS011;843;52.054;8.552;2023-01-30T05:50:28;24.40;;;15.03;;
1691;SDS011;843;52.054;8.552;2023-01-30T05:52:56;26.20;;;15.60;;
1691;SDS011;843;52.054;8.552;2023-01-30T05:55:23;24.80;;;15.80;;
1691;SDS011;843;52.054;8.552;2023-01-30T05:57:49;22.97;;;14.57;;
1691;SDS011;843;52.054;8.552;2023-01-30T06:00:19;23.00;;;14.57;;
1691;SDS011;843;52.054;8.552;2023-01-30T06:02:47;22.20;;;14.67;;
1691;SDS011;843;52.054;8.552;2023-01-30T06:05:13;21.73;;;12.73;;
1691;SDS011;843;52.054;8.552;2023-01-30T06:07:40;18.77;;;12.30;;
1691;SDS011;843;52.054;8.552;2023-01-30T06:10:11;17.37;;;12.03;;
1691;SDS011;843;52.054;8.552;2023-01-30T06:12:38;15.43;;;11.93;;
1691;SDS011;843;52.054;8.552;2023-01-30T06:15:05;21.03;;;13.10;;
1691;SDS011;843;52.054;8.552;2023-01-30T06:17:32;20.83;;;13.17;;
1691;SDS011;843;52.054;8.552;2023-01-30T06:19:59;19.60;;;12.97;;
1691;SDS011;843;52.054;8.552;2023-01-30T06:22:25;22.83;;;14.00;;
1691;SDS011;843;52.054;8.552;2023-01-30T06:24:54;26.43;;;15.90;;
1691;SDS011;843;52.054;8.552;2023-01-30T06:27:22;23.90;;;15.50;;
1691;SDS011;843;52.054;8.552;2023-01-30T06:29:48;25.20;;;15.53;;
1691;SDS011;843;52.054;8.552;2023-01-30T06:32:18;24.30;;;15.10;;
1691;SDS011;843;52.054;8.552;2023-01-30T06:34:45;25.50;;;15.67;;
1691;SDS011;843;52.054;8.552;2023-01-30T06:37:11;23.17;;;14.60;;
1691;SDS011;843;52.054;8.552;2023-01-30T06:39:38;20.23;;;14.43;;
1691;SDS011;843;52.054;8.552;2023-01-30T06:42:05;22.50;;;13.90;;
1691;SDS011;843;52.054;8.552;2023-01-30T06:44:33;19.20;;;13.50;;
1691;SDS011;843;52.054;8.552;2023-01-30T06:47:00;20.37;;;13.80;;
1691;SDS011;843;52.054;8.552;2023-01-30T06:49:28;21.73;;;13.50;;
1691;SDS011;843;52.054;8.552;2023-01-30T06:51:55;24.17;;;14.40;;
1691;SDS011;843;52.054;8.552;2023-01-30T06:54:21;21.23;;;13.43;;
1691;SDS011;843;52.054;8.552;2023-01-30T06:56:49;20.67;;;13.47;;
1691;SDS011;843;52.054;8.552;2023-01-30T06:59:16;21.40;;;14.00;;
1691;SDS011;843;52.054;8.552;2023-01-30T07:01:44;24.00;;;13.10;;
1691;SDS011;843;52.054;8.552;2023-01-30T07:04:13;23.50;;;12.57;;
1691;SDS011;843;52.054;8.552;2023-01-30T07:06:40;18.43;;;11.60;;
1691;SDS011;843;52.054;8.552;2023-01-30T07:09:07;20.13;;;12.03;;
1691;SDS011;843;52.054;8.552;2023-01-30T07:11:35;21.83;;;12.80;;
1691;SDS011;843;52.054;8.552;2023-01-30T07:14:02;20.50;;;12.13;;
1691;SDS011;843;52.054;8.552;2023-01-30T07:16:28;19.90;;;11.80;;
1691;SDS011;843;52.054;8.552;2023-01-30T07:18:56;20.90;;;13.43;;
1691;SDS011;843;52.054;8.552;2023-01-30T07:21:23;17.23;;;11.33;;
1691;SDS011;843;52.054;8.552;2023-01-30T07:23:51;17.83;;;10.57;;
1691;SDS011;843;52.054;8.552;2023-01-30T07:26:18;23.50;;;11.87;;
1691;SDS011;843;52.054;8.552;2023-01-30T07:28:44;20.50;;;11.57;;
1691;SDS011;843;52.054;8.552;2023-01-30T07:31:11;19.37;;;10.70;;
1691;SDS011;843;52.054;8.552;2023-01-30T07:33:38;14.93;;;10.37;;
1691;SDS011;843;52.054;8.552;2023-01-30T07:36:06;18.70;;;9.50;;
1691;SDS011;843;52.054;8.552;2023-01-30T07:38:34;16.13;;;9.00;;
1691;SDS011;843;52.054;8.552;2023-01-30T07:41:00;12.17;;;7.77;;
1691;SDS011;843;52.054;8.552;2023-01-30T07:43:27;19.17;;;8.50;;
1691;SDS011;843;52.054;8.552;2023-01-30T07:45:54;17.23;;;8.33;;
1691;SDS011;843;52.054;8.552;2023-01-30T07:48:20;16.63;;;6.30;;
1691;SDS011;843;52.054;8.552;2023-01-30T07:50:47;11.73;;;4.87;;
1691;SDS011;843;52.054;8.552;2023-01-30T07:53:15;19.00;;;5.13;;
1691;SDS011;843;52.054;8.552;2023-01-30T07:55:45;10.37;;;4.40;;
1691;SDS011;843;52.054;8.552;2023-01-30T07:58:12;15.20;;;4.70;;
1691;SDS011;843;52.054;8.552;2023-01-30T08:00:39;12.80;;;5.03;;
1691;SDS011;843;52.054;8.552;2023-01-30T08:03:09;20.07;;;4.83;;
1691;SDS011;843;52.054;8.552;2023-01-30T08:05:37;6.13;;;4.20;;
1691;SDS011;843;52.054;8.552;2023-01-30T08:08:03;16.50;;;4.60;;
1691;SDS011;843;52.054;8.552;2023-01-30T08:10:35;16.77;;;3.83;;
1691;SDS011;843;52.054;8.552;2023-01-30T08:13:01;11.10;;;4.80;;
1691;SDS011;843;52.054;8.552;2023-01-30T08:15:28;15.33;;;4.67;;
1691;SDS011;843;52.054;8.552;2023-01-30T08:17:57;12.13;;;4.57;;
1691;SDS011;843;52.054;8.552;2023-01-30T08:20:24;14.97;;;3.80;;
1691;SDS011;843;52.054;8.552;2023-01-30T08:22:52;18.53;;;4.10;;
1691;SDS011;843;52.054;8.552;2023-01-30T08:25:19;9.70;;;2.80;;
1691;SDS011;843;52.054;8.552;2023-01-30T08:27:48;12.63;;;3.40;;
1691;SDS011;843;52.054;8.552;2023-01-30T08:30:16;9.60;;;3.13;;
1691;SDS011;843;52.054;8.552;2023-01-30T08:32:43;8.83;;;2.70;;
1691;SDS011;843;52.054;8.552;2023-01-30T08:35:10;12.47;;;4.77;;
1691;SDS011;843;52.054;8.552;2023-01-30T08:37:37;14.83;;;4.40;;
1691;SDS011;843;52.054;8.552;2023-01-30T08:40:05;20.43;;;3.97;;
1691;SDS011;843;52.054;8.552;2023-01-30T08:42:32;12.50;;;3.53;;
1691;SDS011;843;52.054;8.552;2023-01-30T08:45:02;17.77;;;3.97;;
1691;SDS011;843;52.054;8.552;2023-01-30T08:47:29;10.40;;;3.10;;
1691;SDS011;843;52.054;8.552;2023-01-30T08:49:56;14.83;;;3.40;;
1691;SDS011;843;52.054;8.552;2023-01-30T08:52:23;13.77;;;4.73;;
1691;SDS011;843;52.054;8.552;2023-01-30T08:54:49;18.20;;;3.47;;
1691;SDS011;843;52.054;8.552;2023-01-30T08:57:16;12.60;;;3.70;;
1691;SDS011;843;52.054;8.552;2023-01-30T08:59:43;17.37;;;3.03;;
1691;SDS011;843;52.054;8.552;2023-01-30T09:02:11;19.33;;;3.83;;
1691;SDS011;843;52.054;8.552;2023-01-30T09:04:38;13.83;;;3.30;;
1691;SDS011;843;52.054;8.552;2023-01-30T09:07:05;12.67;;;3.87;;
1691;SDS011;843;52.054;8.552;2023-01-30T09:09:32;12.20;;;3.23;;
1691;SDS011;843;52.054;8.552;2023-01-30T09:11:58;14.53;;;3.53;;
1691;SDS011;843;52.054;8.552;2023-01-30T09:14:25;13.60;;;2.63;;
1691;SDS011;843;52.054;8.552;2023-01-30T09:16:52;10.40;;;3.03;;
1691;SDS011;843;52.054;8.552;2023-01-30T09:19:22;19.27;;;3.60;;
1691;SDS011;843;52.054;8.552;2023-01-30T09:21:49;18.70;;;3.30;;
1691;SDS011;843;52.054;8.552;2023-01-30T09:24:16;11.70;;;3.10;;
1691;SDS011;843;52.054;8.552;2023-01-30T09:26:43;19.83;;;3.47;;
1691;SDS011;843;52.054;8.552;2023-01-30T09:29:10;21.27;;;4.23;;
1691;SDS011;843;52.054;8.552;2023-01-30T09:31:37;11.07;;;3.20;;
1691;SDS011;843;52.054;8.552;2023-01-30T09:34:03;9.37;;;2.83;;
1691;SDS011;843;52.054;8.552;2023-01-30T09:36:32;15.23;;;2.67;;
1691;SDS011;843;52.054;8.552;2023-01-30T09:38:58;10.33;;;2.70;;
1691;SDS011;843;52.054;8.552;2023-01-30T09:41:28;17.13;;;3.10;;
1691;SDS011;843;52.054;8.552;2023-01-30T09:44:06;11.40;;;3.00;;
1691;SDS011;843;52.054;8.552;2023-01-30T09:46:41;11.20;;;3.10;;
1691;SDS011;843;52.054;8.552;2023-01-30T09:49:15;18.97;;;3.60;;
1691;SDS011;843;52.054;8.552;2023-01-30T09:51:52;15.97;;;3.33;;
1691;SDS011;843;52.054;8.552;2023-01-30T09:54:24;14.10;;;3.30;;
1691;SDS011;843;52.054;8.552;2023-01-30T09:56:55;17.47;;;3.90;;
1691;SDS011;843;52.054;8.552;2023-01-30T09:59:27;13.83;;;4.43;;
1691;SDS011;843;52.054;8.552;2023-01-30T10:01:58;13.17;;;4.10;;
1691;SDS011;843;52.054;8.552;2023-01-30T10:04:29;15.73;;;3.60;;
1691;SDS011;843;52.054;8.552;2023-01-30T10:07:01;16.17;;;3.67;;
1691;SDS011;843;52.054;8.552;2023-01-30T10:09:36;10.53;;;2.57;;
1691;SDS011;843;52.054;8.552;2023-01-30T10:12:12;17.90;;;4.00;;
1691;SDS011;843;52.054;8.552;2023-01-30T10:14:54;19.33;;;3.40;;
1691;SDS011;843;52.054;8.552;2023-01-30T10:17:30;12.27;;;3.80;;
1691;SDS011;843;52.054;8.552;2023-01-30T10:20:13;12.97;;;4.87;;
1691;SDS011;843;52.054;8.552;2023-01-30T10:22:50;13.30;;;3.07;;
1691;SDS011;843;52.054;8.552;2023-01-30T10:25:25;9.60;;;2.80;;
1691;SDS011;843;52.054;8.552;2023-01-30T10:27:55;15.27;;;3.70;;
1691;SDS011;843;52.054;8.552;2023-01-30T10:30:23;11.07;;;2.63;;
1691;SDS011;843;52.054;8.552;2023-01-30T10:32:51;10.80;;;2.83;;
1691;SDS011;843;52.054;8.552;2023-01-30T10:35:21;11.53;;;2.90;;
1691;SDS011;843;52.054;8.552;2023-01-30T10:37:52;11.83;;;3.80;;
1691;SDS011;843;52.054;8.552;2023-01-30T10:40:24;14.20;;;2.60;;
1691;SDS011;843;52.054;8.552;2023-01-30T10:42:56;14.63;;;3.10;;
1691;SDS011;843;52.054;8.552;2023-01-30T10:45:28;17.37;;;3.40;;
1691;SDS011;843;52.054;8.552;2023-01-30T10:48:02;15.80;;;3.40;;
1691;SDS011;843;52.054;8.552;2023-01-30T10:50:41;21.13;;;4.10;;
1691;SDS011;843;52.054;8.552;2023-01-30T10:53:15;7.90;;;3.20;;
1691;SDS011;843;52.054;8.552;2023-01-30T10:55:43;17.97;;;3.80;;
1691;SDS011;843;52.054;8.552;2023-01-30T10:58:15;12.73;;;3.80;;
1691;SDS011;843;52.054;8.552;2023-01-30T11:00:45;8.63;;;2.20;;
1691;SDS011;843;52.054;8.552;2023-01-30T11:03:24;11.60;;;3.47;;
1691;SDS011;843;52.054;8.552;2023-01-30T11:05:55;16.57;;;4.33;;
1691;SDS011;843;52.054;8.552;2023-01-30T11:08:26;18.10;;;3.60;;
1691;SDS011;843;52.054;8.552;2023-01-30T11:10:54;11.80;;;2.83;;
1691;SDS011;843;52.054;8.552;2023-01-30T11:13:22;19.60;;;3.80;;
1691;SDS011;843;52.054;8.552;2023-01-30T11:15:51;9.67;;;2.83;;
1691;SDS011;843;52.054;8.552;2023-01-30T11:18:19;10.87;;;3.83;;
1691;SDS011;843;52.054;8.552;2023-01-30T11:20:50;18.33;;;4.40;;
1691;SDS011;843;52.054;8.552;2023-01-30T11:23:26;8.93;;;3.30;;
1691;SDS011;843;52.054;8.552;2023-01-30T11:25:57;15.77;;;3.90;;
1691;SDS011;843;52.054;8.552;2023-01-30T11:28:28;12.53;;;2.70;;
1691;SDS011;843;52.054;8.552;2023-01-30T11:31:00;11.17;;;2.57;;
1691;SDS011;843;52.054;8.552;2023-01-30T11:33:30;9.43;;;2.93;;
1691;SDS011;843;52.054;8.552;2023-01-30T11:35:59;14.90;;;2.80;;
1691;SDS011;843;52.054;8.552;2023-01-30T11:38:32;10.60;;;3.37;;
1691;SDS011;843;52.054;8.552;2023-01-30T11:41:01;14.07;;;3.47;;
1691;SDS011;843;52.054;8.552;2023-01-30T11:43:31;20.40;;;4.07;;
1691;SDS011;843;52.054;8.552;2023-01-30T11:45:58;15.97;;;3.67;;
1691;SDS011;843;52.054;8.552;2023-01-30T11:48:26;15.50;;;3.33;;
1691;SDS011;843;52.054;8.552;2023-01-30T11:50:54;16.57;;;3.23;;
1691;SDS011;843;52.054;8.552;2023-01-30T11:53:27;13.20;;;3.60;;
1691;SDS011;843;52.054;8.552;2023-01-30T11:56:02;11.90;;;3.30;;
1691;SDS011;843;52.054;8.552;2023-01-30T11:58:31;14.20;;;2.90;;
1691;SDS011;843;52.054;8.552;2023-01-30T12:01:01;15.27;;;3.50;;
1691;SDS011;843;52.054;8.552;2023-01-30T12:03:29;16.10;;;3.60;;
1691;SDS011;843;52.054;8.552;2023-01-30T12:05:58;20.10;;;3.20;;
1691;SDS011;843;52.054;8.552;2023-01-30T12:08:25;18.83;;;3.73;;
1691;SDS011;843;52.054;8.552;2023-01-30T12:10:55;11.10;;;3.37;;
1691;SDS011;843;52.054;8.552;2023-01-30T12:13:30;11.70;;;3.10;;
1691;SDS011;843;52.054;8.552;2023-01-30T12:16:11;12.70;;;2.90;;
1691;SDS011;843;52.054;8.552;2023-01-30T12:18:43;11.60;;;3.73;;
1691;SDS011;843;52.054;8.552;2023-01-30T12:21:14;11.60;;;3.27;;
1691;SDS011;843;52.054;8.552;2023-01-30T12:23:52;16.67;;;2.60;;
1691;SDS011;843;52.054;8.552;2023-01-30T12:26:25;10.30;;;2.87;;
1691;SDS011;843;52.054;8.552;2023-01-30T12:28:55;11.50;;;3.10;;
1691;SDS011;843;52.054;8.552;2023-01-30T12:31:26;12.87;;;3.93;;
1691;SDS011;843;52.054;8.552;2023-01-30T12:33:56;9.53;;;2.40;;
1691;SDS011;843;52.054;8.552;2023-01-30T12:36:25;8.30;;;2.53;;
1691;SDS011;843;52.054;8.552;2023-01-30T12:39:04;15.70;;;4.07;;
1691;SDS011;843;52.054;8.552;2023-01-30T12:41:41;11.33;;;2.90;;
1691;SDS011;843;52.054;8.552;2023-01-30T12:44:23;17.03;;;5.43;;
1691;SDS011;843;52.054;8.552;2023-01-30T12:46:59;12.27;;;2.97;;
1691;SDS011;843;52.054;8.552;2023-01-30T12:49:37;6.60;;;2.03;;
1691;SDS011;843;52.054;8.552;2023-01-30T12:52:13;5.33;;;3.13;;
1691;SDS011;843;52.054;8.552;2023-01-30T12:54:51;6.93;;;1.57;;
1691;SDS011;843;52.054;8.552;2023-01-30T12:57:25;7.53;;;1.63;;
1691;SDS011;843;52.054;8.552;2023-01-30T13:00:00;6.40;;;1.57;;
1691;SDS011;843;52.054;8.552;2023-01-30T13:02:41;5.53;;;1.87;;
1691;SDS011;843;52.054;8.552;2023-01-30T13:05:16;6.90;;;2.20;;
1691;SDS011;843;52.054;8.552;2023-01-30T13:07:50;4.03;;;2.03;;
1691;SDS011;843;52.054;8.552;2023-01-30T13:10:24;6.43;;;2.23;;
1691;SDS011;843;52.054;8.552;2023-01-30T13:12:59;9.37;;;3.50;;
1691;SDS011;843;52.054;8.552;2023-01-30T13:15:34;11.00;;;3.57;;
1691;SDS011;843;52.054;8.552;2023-01-30T13:18:06;8.37;;;3.40;;
1691;SDS011;843;52.054;8.552;2023-01-30T13:20:39;7.90;;;2.10;;
1691;SDS011;843;52.054;8.552;2023-01-30T13:23:29;10.53;;;2.63;;
1691;SDS011;843;52.054;8.552;2023-01-30T13:26:02;7.50;;;2.50;;
1691;SDS011;843;52.054;8.552;2023-01-30T13:28:34;12.37;;;2.63;;
1691;SDS011;843;52.054;8.552;2023-01-30T13:31:04;14.43;;;3.10;;
1691;SDS011;843;52.054;8.552;2023-01-30T13:33:32;11.90;;;2.50;;
1691;SDS011;843;52.054;8.552;2023-01-30T13:36:02;18.70;;;3.70;;
1691;SDS011;843;52.054;8.552;2023-01-30T13:38:33;13.93;;;3.63;;
1691;SDS011;843;52.054;8.552;2023-01-30T13:41:07;11.07;;;5.00;;
1691;SDS011;843;52.054;8.552;2023-01-30T13:43:37;19.87;;;3.37;;
1691;SDS011;843;52.054;8.552;2023-01-30T13:46:06;10.60;;;2.73;;
1691;SDS011;843;52.054;8.552;2023-01-30T13:48:44;13.30;;;2.57;;
1691;SDS011;843;52.054;8.552;2023-01-30T13:51:17;9.80;;;2.47;;
1691;SDS011;843;52.054;8.552;2023-01-30T13:54:02;9.17;;;2.20;;
1691;SDS011;843;52.054;8.552;2023-01-30T13:56:36;12.33;;;3.77;;
1691;SDS011;843;52.054;8.552;2023-01-30T13:59:09;8.83;;;2.63;;
1691;SDS011;843;52.054;8.552;2023-01-30T14:04:42;7.57;;;2.87;;
1691;SDS011;843;52.054;8.552;2023-01-30T14:10:11;14.93;;;2.80;;
1691;SDS011;843;52.054;8.552;2023-01-30T14:12:41;9.03;;;2.67;;
1691;SDS011;843;52.054;8.552;2023-01-30T14:15:23;5.57;;;2.07;;
1691;SDS011;843;52.054;8.552;2023-01-30T14:17:59;15.50;;;3.20;;
1691;SDS011;843;52.054;8.552;2023-01-30T14:20:30;5.90;;;1.93;;
1691;SDS011;843;52.054;8.552;2023-01-30T14:22:57;14.57;;;3.87;;
1691;SDS011;843;52.054;8.552;2023-01-30T14:25:33;17.93;;;3.03;;
1691;SDS011;843;52.054;8.552;2023-01-30T14:40:27;11.40;;;2.57;;
1691;SDS011;843;52.054;8.552;2023-01-30T14:49:18;6.07;;;2.73;;
1691;SDS011;843;52.054;8.552;2023-01-30T14:51:56;13.50;;;2.93;;
1691;SDS011;843;52.054;8.552;2023-01-30T14:54:33;8.90;;;1.97;;
1691;SDS011;843;52.054;8.552;2023-01-30T14:57:14;12.00;;;2.20;;
1691;SDS011;843;52.054;8.552;2023-01-30T14:59:46;8.60;;;2.27;;
1691;SDS011;843;52.054;8.552;2023-01-30T15:02:17;8.97;;;2.90;;
1691;SDS011;843;52.054;8.552;2023-01-30T15:04:47;7.90;;;2.73;;
1691;SDS011;843;52.054;8.552;2023-01-30T15:07:19;10.63;;;1.90;;
1691;SDS011;843;52.054;8.552;2023-01-30T15:09:49;7.93;;;2.67;;
1691;SDS011;843;52.054;8.552;2023-01-30T15:12:31;7.60;;;2.20;;
1691;SDS011;843;52.054;8.552;2023-01-30T15:15:09;7.80;;;2.80;;
1691;SDS011;843;52.054;8.552;2023-01-30T15:17:44;9.33;;;1.97;;
1691;SDS011;843;52.054;8.552;2023-01-30T15:20:26;8.23;;;2.10;;
1691;SDS011;843;52.054;8.552;2023-01-30T15:23:06;10.53;;;2.67;;
1691;SDS011;843;52.054;8.552;2023-01-30T15:25:55;8.10;;;2.30;;
1691;SDS011;843;52.054;8.552;2023-01-30T15:28:34;5.40;;;2.30;;
1691;SDS011;843;52.054;8.552;2023-01-30T15:31:07;12.17;;;2.33;;
1691;SDS011;843;52.054;8.552;2023-01-30T15:33:41;7.60;;;2.70;;
1691;SDS011;843;52.054;8.552;2023-01-30T15:39:00;9.30;;;2.10;;
1691;SDS011;843;52.054;8.552;2023-01-30T15:41:28;14.60;;;2.40;;
1691;SDS011;843;52.054;8.552;2023-01-30T15:44:15;8.00;;;2.97;;
1691;SDS011;843;52.054;8.552;2023-01-30T15:47:22;10.40;;;3.00;;
1691;SDS011;843;52.054;8.552;2023-01-30T15:49:58;17.23;;;2.77;;
1691;SDS011;843;52.054;8.552;2023-01-30T15:52:29;9.70;;;2.47;;
1691;SDS011;843;52.054;8.552;2023-01-30T15:55:03;9.07;;;1.90;;
1691;SDS011;843;52.054;8.552;2023-01-30T15:57:31;13.43;;;2.20;;
1691;SDS011;843;52.054;8.552;2023-01-30T16:00:00;11.17;;;3.67;;
1691;SDS011;843;52.054;8.552;2023-01-30T16:02:28;6.40;;;2.30;;
1691;SDS011;843;52.054;8.552;2023-01-30T16:05:12;6.93;;;2.30;;